createdAt,value
2018-10-21T00:00:01.141Z,24.87
2018-10-21T00:02:30.423Z,23.63
2018-10-21T00:04:58.849Z,25.80
2018-10-21T00:07:27.475Z,20.37
2018-10-21T00:09:56.151Z,22.83
2018-10-21T00:12:24.760Z,21.63
2018-10-21T00:14:53.355Z,23.40
2018-10-21T00:17:22.091Z,23.70
2018-10-21T00:19:50.760Z,26.50
2018-10-21T00:22:19.929Z,21.30
2018-10-21T00:24:48.480Z,21.40
2018-10-21T00:27:17.319Z,21.13
2018-10-21T00:29:46.076Z,21.80
2018-10-21T00:32:14.688Z,21.10
2018-10-21T00:34:43.307Z,21.70
2018-10-21T00:37:11.881Z,25.13
2018-10-21T00:39:40.700Z,21.13
2018-10-21T00:42:09.836Z,20.33
2018-10-21T00:44:38.384Z,22.77
2018-10-21T00:47:07.040Z,23.90
2018-10-21T00:49:35.720Z,25.27
2018-10-21T00:52:04.484Z,23.97
2018-10-21T00:54:33.141Z,23.67
2018-10-21T00:57:01.814Z,23.17
2018-10-21T00:59:30.301Z,20.60
2018-10-21T01:01:59.065Z,21.80
2018-10-21T01:04:27.710Z,20.60
2018-10-21T01:06:56.480Z,21.00
2018-10-21T01:09:25.112Z,25.33
2018-10-21T01:11:53.870Z,22.27
2018-10-21T01:14:22.876Z,21.60
2018-10-21T01:16:52.381Z,21.80
2018-10-21T01:19:21.169Z,20.97
2018-10-21T01:21:49.697Z,23.03
2018-10-21T01:24:18.455Z,20.70
2018-10-21T01:26:47.149Z,21.27
2018-10-21T01:29:16.010Z,23.67
2018-10-21T01:31:44.884Z,26.20
2018-10-21T01:34:13.533Z,22.10
2018-10-21T01:36:43.332Z,28.13
2018-10-21T01:39:13.003Z,27.40
2018-10-21T01:41:41.653Z,25.27
2018-10-21T01:44:10.375Z,25.67
2018-10-21T01:46:39.017Z,27.77
2018-10-21T01:49:07.690Z,25.50
2018-10-21T01:51:36.205Z,21.30
2018-10-21T01:54:05.331Z,24.43
2018-10-21T01:56:34.069Z,25.17
2018-10-21T01:59:02.648Z,29.90
2018-10-21T02:01:31.213Z,36.30
2018-10-21T02:03:59.849Z,31.13
2018-10-21T02:06:28.471Z,48.80
2018-10-21T02:08:57.160Z,41.33
2018-10-21T02:11:25.680Z,36.60
2018-10-21T02:13:54.449Z,44.47
2018-10-21T02:16:23.933Z,45.77
2018-10-21T02:18:52.534Z,49.53
2018-10-21T02:21:21.221Z,43.93
2018-10-21T02:23:50.262Z,43.60
2018-10-21T02:26:18.897Z,31.80
2018-10-21T02:28:48.104Z,50.23
2018-10-21T02:31:16.651Z,34.03
2018-10-21T02:33:45.305Z,39.13
2018-10-21T02:36:13.951Z,40.53
2018-10-21T02:38:43.190Z,34.70
2018-10-21T02:42:16.150Z,35.60
2018-10-21T02:44:44.701Z,44.43
2018-10-21T02:47:13.216Z,38.87
2018-10-21T02:49:41.936Z,42.07
2018-10-21T02:52:11.864Z,45.37
2018-10-21T02:54:40.368Z,33.63
2018-10-21T02:57:12.273Z,28.27
2018-10-21T02:59:40.665Z,38.23
2018-10-21T03:02:09.432Z,41.00
2018-10-21T03:04:37.969Z,35.37
2018-10-21T03:07:06.541Z,36.20
2018-10-21T03:09:35.158Z,35.70
2018-10-21T03:12:03.828Z,49.67
2018-10-21T03:14:32.349Z,33.40
2018-10-21T03:17:01.859Z,47.73
2018-10-21T03:19:30.388Z,41.80
2018-10-21T03:21:58.937Z,33.97
2018-10-21T03:24:27.929Z,37.97
2018-10-21T03:26:56.758Z,30.53
2018-10-21T03:29:25.280Z,36.70
2018-10-21T03:31:54.152Z,26.90
2018-10-21T03:34:22.672Z,30.17
2018-10-21T03:36:51.408Z,28.13
2018-10-21T03:39:19.985Z,29.47
2018-10-21T03:41:49.102Z,26.80
2018-10-21T03:44:17.700Z,29.70
2018-10-21T03:46:46.472Z,36.07
2018-10-21T03:49:15.582Z,30.30
2018-10-21T03:51:44.287Z,30.20
2018-10-21T03:54:12.896Z,30.10
2018-10-21T03:56:41.478Z,33.83
2018-10-21T03:59:10.049Z,37.90
2018-10-21T04:01:38.648Z,32.60
2018-10-21T04:04:07.249Z,35.27
2018-10-21T04:06:35.696Z,35.67
2018-10-21T04:09:05.860Z,33.50
2018-10-21T04:11:34.963Z,39.00
2018-10-21T04:14:03.484Z,30.30
2018-10-21T04:16:32.071Z,28.93
2018-10-21T04:19:00.801Z,34.97
2018-10-21T04:21:29.884Z,25.33
2018-10-21T04:23:58.900Z,28.83
2018-10-21T04:26:28.388Z,23.70
2018-10-21T04:28:56.960Z,27.17
2018-10-21T04:31:25.856Z,27.00
2018-10-21T04:33:54.636Z,26.13
2018-10-21T04:36:27.589Z,24.07
2018-10-21T04:40:11.520Z,23.70
2018-10-21T04:42:40.775Z,23.50
2018-10-21T04:45:10.162Z,21.47
2018-10-21T04:47:38.693Z,21.87
2018-10-21T04:50:08.565Z,23.83
2018-10-21T04:52:37.184Z,22.63
2018-10-21T04:55:08.894Z,22.37
2018-10-21T04:57:38.933Z,26.40
2018-10-21T05:00:10.959Z,22.80
2018-10-21T05:02:40.273Z,28.37
2018-10-21T05:05:10.069Z,28.93
2018-10-21T05:07:39.268Z,23.57
2018-10-21T05:10:17.925Z,25.87
2018-10-21T05:12:46.932Z,25.87
2018-10-21T05:15:17.250Z,29.87
2018-10-21T05:17:47.072Z,33.00
2018-10-21T05:20:17.394Z,26.40
2018-10-21T05:22:47.104Z,29.30
2018-10-21T05:25:15.612Z,26.33
2018-10-21T05:27:44.097Z,26.13
2018-10-21T05:30:13.349Z,22.70
2018-10-21T05:32:42.218Z,26.07
2018-10-21T05:35:12.555Z,23.73
2018-10-21T05:37:41.403Z,26.37
2018-10-21T05:40:12.237Z,25.10
2018-10-21T05:42:40.925Z,37.43
2018-10-21T05:45:09.565Z,32.73
2018-10-21T05:47:38.931Z,24.97
2018-10-21T05:50:08.569Z,31.67
2018-10-21T05:52:37.504Z,27.43
2018-10-21T05:55:06.756Z,55.30
2018-10-21T05:57:35.212Z,35.03
2018-10-21T06:00:05.065Z,40.40
2018-10-21T06:02:33.545Z,52.67
2018-10-21T06:05:02.033Z,52.23
2018-10-21T06:07:30.552Z,35.30
2018-10-21T06:09:59.404Z,46.90
2018-10-21T06:12:27.884Z,55.57
2018-10-21T06:14:57.221Z,93.80
2018-10-21T06:17:31.116Z,65.33
2018-10-21T06:20:03.885Z,32.07
2018-10-21T06:22:37.619Z,47.97
2018-10-21T06:25:06.329Z,33.23
2018-10-21T06:27:35.011Z,35.77
2018-10-21T06:30:03.640Z,22.93
2018-10-21T06:32:32.183Z,18.40
2018-10-21T06:35:00.964Z,17.77
2018-10-21T06:37:29.665Z,18.37
2018-10-21T06:39:58.498Z,17.87
2018-10-21T06:42:27.109Z,21.50
2018-10-21T06:44:56.128Z,19.10
2018-10-21T06:47:25.096Z,17.87
2018-10-21T06:49:54.577Z,17.00
2018-10-21T06:52:23.281Z,16.60
2018-10-21T06:54:52.404Z,13.97
2018-10-21T06:57:21.656Z,13.27
2018-10-21T06:59:50.458Z,14.97
2018-10-21T07:02:19.465Z,13.53
2018-10-21T07:04:48.910Z,13.70
2018-10-21T07:07:18.163Z,16.70
2018-10-21T07:09:47.155Z,14.33
2018-10-21T07:12:15.817Z,13.30
2018-10-21T07:14:44.535Z,16.47
2018-10-21T07:17:13.294Z,16.13
2018-10-21T07:19:41.908Z,16.27
2018-10-21T07:22:10.591Z,13.43
2018-10-21T07:24:39.155Z,14.70
2018-10-21T07:27:08.117Z,18.70
2018-10-21T07:29:37.169Z,25.03
2018-10-21T07:32:06.502Z,20.90
2018-10-21T07:34:35.468Z,22.53
2018-10-21T07:37:04.773Z,23.03
2018-10-21T07:39:34.088Z,24.37
2018-10-21T07:42:03.429Z,22.30
2018-10-21T07:44:32.364Z,20.30
2018-10-21T07:47:01.049Z,22.47
2018-10-21T07:49:29.985Z,39.57
2018-10-21T07:51:58.587Z,26.70
2018-10-21T07:54:27.166Z,18.67
2018-10-21T07:56:56.862Z,16.20
2018-10-21T07:59:25.791Z,22.20
2018-10-21T08:01:55.135Z,15.07
2018-10-21T08:04:24.068Z,14.33
2018-10-21T08:07:03.952Z,15.60
2018-10-21T08:09:32.786Z,15.67
2018-10-21T08:12:01.674Z,15.77
2018-10-21T08:14:30.325Z,15.80
2018-10-21T08:19:39.206Z,14.60
2018-10-21T08:22:08.462Z,14.00
2018-10-21T08:24:37.472Z,13.90
2018-10-21T08:27:07.905Z,13.00
2018-10-21T08:29:37.338Z,15.17
2018-10-21T08:32:07.318Z,16.43
2018-10-21T08:34:36.109Z,17.80
2018-10-21T08:37:05.125Z,15.83
2018-10-21T08:39:33.898Z,13.90
2018-10-21T08:42:02.886Z,14.27
2018-10-21T08:44:32.582Z,14.37
2018-10-21T08:47:01.377Z,12.73
2018-10-21T08:49:31.388Z,16.33
2018-10-21T08:52:01.188Z,20.10
2018-10-21T08:54:30.434Z,16.60
2018-10-21T08:56:59.200Z,14.43
2018-10-21T08:59:28.636Z,13.47
2018-10-21T09:01:57.544Z,15.23
2018-10-21T09:04:26.459Z,14.57
2018-10-21T09:06:55.712Z,12.70
2018-10-21T09:09:24.789Z,14.13
2018-10-21T09:11:53.851Z,14.67
2018-10-21T09:14:22.635Z,18.93
2018-10-21T09:16:52.259Z,16.20
2018-10-21T09:19:21.093Z,15.33
2018-10-21T09:21:50.266Z,18.00
2018-10-21T09:24:19.241Z,17.20
2018-10-21T09:26:48.516Z,24.07
2018-10-21T09:29:17.247Z,22.10
2018-10-21T09:31:46.127Z,19.10
2018-10-21T09:34:15.485Z,18.57
2018-10-21T09:36:45.097Z,18.90
2018-10-21T09:39:15.299Z,20.13
2018-10-21T09:41:45.202Z,23.17
2018-10-21T09:44:14.377Z,23.70
2018-10-21T09:46:43.312Z,27.17
2018-10-21T09:49:12.969Z,30.73
2018-10-21T09:51:41.964Z,45.53
2018-10-21T09:54:10.836Z,43.87
2018-10-21T09:56:40.177Z,38.87
2018-10-21T09:59:09.631Z,38.50
2018-10-21T10:01:43.718Z,36.67
2018-10-21T10:04:13.097Z,34.30
2018-10-21T10:06:42.427Z,34.83
2018-10-21T10:09:12.707Z,33.27
2018-10-21T10:11:42.311Z,33.93
2018-10-21T10:14:11.381Z,34.97
2018-10-21T10:16:40.423Z,33.57
2018-10-21T10:19:09.677Z,34.27
2018-10-21T10:21:38.280Z,35.77
2018-10-21T10:24:07.104Z,30.23
2018-10-21T10:26:36.683Z,28.83
2018-10-21T10:29:07.060Z,32.07
2018-10-21T10:31:36.032Z,29.93
2018-10-21T10:34:04.798Z,27.47
2018-10-21T10:36:34.343Z,26.53
2018-10-21T10:39:03.197Z,25.40
2018-10-21T10:41:32.007Z,24.10
2018-10-21T10:44:01.077Z,27.90
2018-10-21T10:46:30.348Z,31.67
2018-10-21T10:48:59.249Z,27.93
2018-10-21T10:51:27.968Z,24.50
2018-10-21T10:53:56.790Z,25.60
2018-10-21T10:56:26.322Z,24.37
2018-10-21T10:58:55.230Z,27.37
2018-10-21T11:01:23.839Z,25.47
2018-10-21T11:03:52.826Z,24.57
2018-10-21T11:06:22.056Z,24.23
2018-10-21T11:08:51.029Z,26.30
2018-10-21T11:11:21.032Z,30.00
2018-10-21T11:13:49.626Z,27.70
2018-10-21T11:16:18.717Z,23.73
2018-10-21T11:18:47.758Z,26.30
2018-10-21T11:21:16.699Z,24.70
2018-10-21T11:23:45.580Z,25.20
2018-10-21T11:26:14.790Z,24.30
2018-10-21T11:28:43.966Z,23.57
2018-10-21T11:31:13.349Z,21.87
2018-10-21T11:33:42.518Z,21.57
2018-10-21T11:36:11.358Z,22.23
2018-10-21T11:38:40.986Z,21.60
2018-10-21T11:41:10.087Z,19.23
2018-10-21T11:43:45.524Z,22.27
2018-10-21T11:46:16.276Z,20.60
2018-10-21T11:48:44.938Z,21.57
2018-10-21T11:51:13.655Z,17.50
2018-10-21T11:53:42.496Z,21.40
2018-10-21T11:56:11.422Z,18.43
2018-10-21T11:58:40.177Z,17.83
2018-10-21T12:01:09.224Z,16.73
2018-10-21T12:03:38.557Z,21.23
2018-10-21T12:06:07.203Z,19.60
2018-10-21T12:08:36.039Z,20.13
2018-10-21T12:11:04.984Z,20.77
2018-10-21T12:13:33.737Z,20.63
2018-10-21T12:16:02.745Z,18.30
2018-10-21T12:18:31.224Z,21.47
2018-10-21T12:21:00.085Z,21.73
2018-10-21T12:23:28.975Z,19.07
2018-10-21T12:25:57.968Z,17.37
2018-10-21T12:28:26.767Z,19.77
2018-10-21T12:30:55.947Z,17.33
2018-10-21T12:33:24.739Z,18.07
2018-10-21T12:35:53.520Z,17.73
2018-10-21T12:38:22.081Z,20.43
2018-10-21T12:40:50.623Z,16.73
2018-10-21T12:43:19.444Z,16.57
2018-10-21T12:45:48.195Z,18.00
2018-10-21T12:48:17.047Z,16.43
2018-10-21T12:50:45.872Z,17.30
2018-10-21T12:53:14.593Z,16.83
2018-10-21T12:55:49.772Z,17.80
2018-10-21T12:58:19.087Z,16.60
2018-10-21T13:00:48.143Z,17.93
2018-10-21T13:03:16.841Z,16.57
2018-10-21T13:05:45.771Z,17.87
2018-10-21T13:08:14.672Z,15.50
2018-10-21T13:10:43.639Z,18.37
2018-10-21T13:13:12.873Z,17.00
2018-10-21T13:15:41.786Z,15.57
2018-10-21T13:18:10.468Z,13.63
2018-10-21T13:20:39.437Z,13.67
2018-10-21T13:23:08.856Z,21.17
2018-10-21T13:25:37.734Z,13.90
2018-10-21T13:28:06.635Z,14.87
2018-10-21T13:30:35.305Z,12.80
2018-10-21T13:33:04.132Z,11.80
2018-10-21T13:35:33.010Z,14.47
2018-10-21T13:38:01.701Z,12.70
2018-10-21T13:40:30.865Z,12.80
2018-10-21T13:43:00.252Z,13.83
2018-10-21T13:45:29.186Z,11.37
2018-10-21T13:47:57.821Z,10.67
2018-10-21T13:50:26.705Z,12.63
2018-10-21T13:52:56.038Z,11.13
2018-10-21T13:55:25.071Z,10.07
2018-10-21T13:57:53.990Z,10.57
2018-10-21T14:00:22.715Z,9.73
2018-10-21T14:02:51.555Z,9.90
2018-10-21T14:05:20.321Z,9.30
2018-10-21T14:07:49.366Z,9.47
2018-10-21T14:10:18.277Z,9.27
2018-10-21T14:12:46.842Z,8.57
2018-10-21T14:15:15.364Z,8.77
2018-10-21T14:17:44.224Z,11.93
2018-10-21T14:20:13.043Z,8.27
2018-10-21T14:22:41.791Z,6.43
2018-10-21T14:25:10.647Z,10.90
2018-10-21T14:27:39.584Z,8.23
2018-10-21T14:30:10.010Z,7.43
2018-10-21T14:32:39.051Z,5.90
2018-10-21T14:35:10.469Z,5.40
2018-10-21T14:37:39.796Z,7.90
2018-10-21T14:40:10.965Z,5.20
2018-10-21T14:42:39.930Z,5.10
2018-10-21T14:45:10.357Z,6.43
2018-10-21T14:47:39.353Z,6.27
2018-10-21T14:50:08.986Z,6.60
2018-10-21T14:52:38.226Z,6.57
2018-10-21T14:55:08.493Z,4.00
2018-10-21T14:57:37.898Z,3.63
2018-10-21T15:00:08.556Z,5.53
2018-10-21T15:02:37.161Z,3.40
2018-10-21T15:05:08.654Z,4.43
2018-10-21T15:07:37.704Z,7.17
2018-10-21T15:10:07.949Z,3.50
2018-10-21T15:12:36.611Z,3.37
2018-10-21T15:15:06.070Z,3.80
2018-10-21T15:17:34.737Z,5.33
2018-10-21T15:20:03.781Z,5.33
2018-10-21T15:22:32.914Z,8.80
2018-10-21T15:25:01.614Z,4.50
2018-10-21T15:27:31.176Z,5.07
2018-10-21T15:30:00.445Z,4.03
2018-10-21T15:32:29.021Z,3.10
2018-10-21T15:34:57.914Z,4.90
2018-10-21T15:37:27.332Z,4.27
2018-10-21T15:39:56.123Z,2.97
2018-10-21T15:42:24.723Z,2.90
2018-10-21T15:44:53.629Z,2.70
2018-10-21T15:47:22.561Z,4.77
2018-10-21T15:49:51.296Z,3.30
2018-10-21T15:52:20.261Z,2.53
2018-10-21T15:54:48.852Z,3.50
2018-10-21T15:57:17.539Z,3.00
2018-10-21T15:59:46.819Z,4.27
2018-10-21T16:02:15.718Z,3.37
2018-10-21T16:04:44.649Z,4.30
2018-10-21T16:07:13.688Z,2.43
2018-10-21T16:09:42.743Z,3.10
2018-10-21T16:12:11.484Z,3.10
2018-10-21T16:14:40.693Z,2.87
2018-10-21T16:17:10.105Z,3.00
2018-10-21T16:19:39.093Z,3.57
2018-10-21T16:22:08.476Z,3.13
2018-10-21T16:24:37.229Z,3.00
2018-10-21T16:27:06.021Z,5.87
2018-10-21T16:29:34.974Z,5.67
2018-10-21T16:32:04.560Z,2.13
2018-10-21T16:34:33.048Z,3.27
2018-10-21T16:37:01.697Z,2.53
2018-10-21T16:39:31.161Z,2.73
2018-10-21T16:42:00.107Z,2.03
2018-10-21T16:44:28.948Z,2.07
2018-10-21T16:46:57.735Z,2.07
2018-10-21T16:49:26.511Z,2.53
2018-10-21T16:51:55.503Z,8.43
2018-10-21T16:54:25.052Z,3.27
2018-10-21T16:56:53.724Z,1.90
2018-10-21T16:59:22.784Z,2.83
2018-10-21T17:01:51.597Z,2.40
2018-10-21T17:04:20.489Z,2.23
2018-10-21T17:06:49.535Z,3.43
2018-10-21T17:09:18.424Z,1.97
2018-10-21T17:11:47.134Z,4.97
2018-10-21T17:14:16.100Z,2.73
2018-10-21T17:16:44.893Z,2.10
2018-10-21T17:19:13.764Z,2.33
2018-10-21T17:21:42.823Z,2.10
2018-10-21T17:24:11.892Z,2.10
2018-10-21T17:26:41.015Z,2.03
2018-10-21T17:29:09.830Z,2.37
2018-10-21T17:31:38.633Z,2.67
2018-10-21T17:34:08.018Z,3.13
2018-10-21T17:36:37.258Z,2.07
2018-10-21T17:39:10.690Z,3.00
2018-10-21T17:41:39.572Z,2.90
2018-10-21T17:44:08.736Z,2.60
2018-10-21T17:46:37.970Z,3.47
2018-10-21T17:49:06.830Z,3.17
2018-10-21T17:51:35.792Z,2.70
2018-10-21T17:54:05.762Z,5.60
2018-10-21T17:56:38.882Z,2.90
2018-10-21T17:59:08.034Z,2.83
2018-10-21T18:01:36.955Z,4.17
2018-10-21T18:04:06.419Z,3.20
2018-10-21T18:06:35.309Z,3.77
2018-10-21T18:09:06.152Z,2.90
2018-10-21T18:11:35.208Z,2.87
2018-10-21T18:14:04.319Z,5.63
2018-10-21T18:16:33.678Z,4.80
2018-10-21T18:19:03.281Z,5.20
2018-10-21T18:21:32.200Z,2.83
2018-10-21T18:24:00.953Z,3.60
2018-10-21T18:26:30.611Z,4.00
2018-10-21T18:28:59.741Z,4.17
2018-10-21T18:31:28.584Z,4.17
2018-10-21T18:33:57.851Z,4.10
2018-10-21T18:36:26.739Z,3.20
2018-10-21T18:39:02.284Z,4.80
2018-10-21T18:41:31.794Z,5.07
2018-10-21T18:44:00.978Z,3.70
2018-10-21T18:46:29.992Z,4.30
2018-10-21T18:48:59.286Z,4.27
2018-10-21T18:51:28.608Z,4.63
2018-10-21T18:53:58.503Z,5.10
2018-10-21T18:56:27.851Z,3.50
2018-10-21T18:58:57.328Z,3.60
2018-10-21T19:01:26.306Z,5.40
2018-10-21T19:03:56.656Z,3.80
2018-10-21T19:06:25.595Z,5.33
2018-10-21T19:08:54.495Z,6.30
2018-10-21T19:11:23.653Z,4.27
2018-10-21T19:13:55.248Z,4.67
2018-10-21T19:16:25.526Z,5.30
2018-10-21T19:18:55.376Z,4.80
2018-10-21T19:21:26.275Z,5.37
2018-10-21T19:23:56.520Z,10.57
2018-10-21T19:26:25.507Z,5.47
2018-10-21T19:28:54.903Z,6.87
2018-10-21T19:31:23.804Z,5.60
2018-10-21T19:33:53.101Z,6.57
2018-10-21T19:36:22.178Z,6.03
2018-10-21T19:38:51.097Z,7.57
2018-10-21T19:41:19.870Z,6.17
2018-10-21T19:43:48.924Z,7.37
2018-10-21T19:46:18.570Z,7.50
2018-10-21T19:48:48.338Z,5.17
2018-10-21T19:51:17.191Z,6.83
2018-10-21T19:53:46.019Z,7.20
2018-10-21T19:56:15.071Z,8.03
2018-10-21T19:58:44.229Z,6.73
2018-10-21T20:01:13.193Z,7.07
2018-10-21T20:03:43.136Z,10.37
2018-10-21T20:06:12.035Z,6.97
2018-10-21T20:08:41.003Z,6.23
